sensor_id;sensor_type;location;lat;lon;timestamp;pressure;altitude;pressure_sealevel;temperature;humidity
13124;BME280;6627;50.920;12.050;2024-03-02T00:01:52;97610.91;;;16.64;44.02
13124;BME280;6627;50.920;12.050;2024-03-02T00:04:20;97699.25;;;17.51;43.33
13124;BME280;6627;50.920;12.050;2024-03-02T00:06:47;97677.56;;;17.35;43.30
13124;BME280;6627;50.920;12.050;2024-03-02T00:09:34;97624.09;;;16.58;44.80
13124;BME280;6627;50.920;12.050;2024-03-02T00:12:05;97676.72;;;17.31;43.67
13124;BME280;6627;50.920;12.050;2024-03-02T00:14:35;97699.53;;;17.73;43.03
13124;BME280;6627;50.920;12.050;2024-03-02T00:17:17;97675.34;;;17.45;43.36
13124;BME280;6627;50.920;12.050;2024-03-02T00:19:49;97641.56;;;17.33;43.29
13124;BME280;6627;50.920;12.050;2024-03-02T00:22:16;97717.50;;;18.04;42.44
13124;BME280;6627;50.920;12.050;2024-03-02T00:24:43;97715.50;;;18.01;42.53
13124;BME280;6627;50.920;12.050;2024-03-02T00:27:15;97720.91;;;18.31;41.59
13124;BME280;6627;50.920;12.050;2024-03-02T00:29:45;97599.19;;;17.20;42.97
13124;BME280;6627;50.920;12.050;2024-03-02T00:32:16;97723.91;;;18.15;41.95
13124;BME280;6627;50.920;12.050;2024-03-02T00:34:47;97681.84;;;18.37;41.09
13124;BME280;6627;50.920;12.050;2024-03-02T00:37:15;97621.88;;;17.92;41.67
13124;BME280;6627;50.920;12.050;2024-03-02T00:39:49;97660.53;;;18.20;41.30
13124;BME280;6627;50.920;12.050;2024-03-02T00:42:16;97618.88;;;18.04;41.08
13124;BME280;6627;50.920;12.050;2024-03-02T00:44:44;97518.00;;;17.31;41.97
13124;BME280;6627;50.920;12.050;2024-03-02T00:47:13;97579.13;;;16.79;44.17
13124;BME280;6627;50.920;12.050;2024-03-02T00:49:41;97612.09;;;17.53;42.58
13124;BME280;6627;50.920;12.050;2024-03-02T00:52:09;97664.06;;;18.21;41.48
13124;BME280;6627;50.920;12.050;2024-03-02T00:54:39;97668.53;;;18.39;40.90
13124;BME280;6627;50.920;12.050;2024-03-02T00:57:11;97559.56;;;17.40;42.14
13124;BME280;6627;50.920;12.050;2024-03-02T00:59:41;97639.63;;;18.05;41.65
13124;BME280;6627;50.920;12.050;2024-03-02T01:02:10;97609.75;;;17.93;41.45
13124;BME280;6627;50.920;12.050;2024-03-02T01:04:37;97584.34;;;17.55;41.90
13124;BME280;6627;50.920;12.050;2024-03-02T01:07:06;97549.78;;;17.06;42.79
13124;BME280;6627;50.920;12.050;2024-03-02T01:09:33;97594.53;;;17.58;42.04
13124;BME280;6627;50.920;12.050;2024-03-02T01:12:00;97580.66;;;17.40;42.24
13124;BME280;6627;50.920;12.050;2024-03-02T01:14:27;97536.59;;;17.15;42.49
13124;BME280;6627;50.920;12.050;2024-03-02T01:16:58;97545.78;;;17.00;42.83
13124;BME280;6627;50.920;12.050;2024-03-02T01:19:28;97523.28;;;16.80;43.14
13124;BME280;6627;50.920;12.050;2024-03-02T01:21:58;97538.56;;;16.84;43.15
13124;BME280;6627;50.920;12.050;2024-03-02T01:24:29;97514.28;;;16.79;43.05
13124;BME280;6627;50.920;12.050;2024-03-02T01:26:56;97486.34;;;16.36;43.50
13124;BME280;6627;50.920;12.050;2024-03-02T01:29:23;97507.44;;;16.66;43.08
13124;BME280;6627;50.920;12.050;2024-03-02T01:31:51;97553.41;;;16.83;43.06
13124;BME280;6627;50.920;12.050;2024-03-02T01:34:19;97535.16;;;16.91;42.71
13124;BME280;6627;50.920;12.050;2024-03-02T01:37:05;97496.25;;;16.75;42.62
13124;BME280;6627;50.920;12.050;2024-03-02T01:39:36;97552.41;;;16.99;42.48
13124;BME280;6627;50.920;12.050;2024-03-02T01:42:03;97515.84;;;16.80;42.52
13124;BME280;6627;50.920;12.050;2024-03-02T01:44:33;97485.59;;;16.66;42.56
13124;BME280;6627;50.920;12.050;2024-03-02T01:47:02;97521.22;;;16.73;42.88
13124;BME280;6627;50.920;12.050;2024-03-02T01:49:45;97482.50;;;16.41;43.04
13124;BME280;6627;50.920;12.050;2024-03-02T01:52:12;97507.03;;;16.34;43.35
13124;BME280;6627;50.920;12.050;2024-03-02T01:54:41;97517.47;;;16.28;43.87
13124;BME280;6627;50.920;12.050;2024-03-02T01:57:08;97544.75;;;16.25;44.28
13124;BME280;6627;50.920;12.050;2024-03-02T01:59:36;97509.41;;;15.63;45.42
13124;BME280;6627;50.920;12.050;2024-03-02T02:02:06;97623.94;;;16.48;44.76
13124;BME280;6627;50.920;12.050;2024-03-02T02:04:36;97568.13;;;16.22;44.77
13124;BME280;6627;50.920;12.050;2024-03-02T02:07:06;97617.09;;;16.34;45.09
13124;BME280;6627;50.920;12.050;2024-03-02T02:09:33;97620.72;;;16.42;44.82
13124;BME280;6627;50.920;12.050;2024-03-02T02:12:02;97627.75;;;16.93;43.49
13124;BME280;6627;50.920;12.050;2024-03-02T02:14:32;97685.38;;;17.07;43.88
13124;BME280;6627;50.920;12.050;2024-03-02T02:17:00;97563.06;;;16.51;43.90
13124;BME280;6627;50.920;12.050;2024-03-02T02:19:27;97597.44;;;17.05;42.98
13124;BME280;6627;50.920;12.050;2024-03-02T02:21:59;97572.34;;;16.43;44.43
13124;BME280;6627;50.920;12.050;2024-03-02T02:24:29;97366.84;;;14.35;46.58
13124;BME280;6627;50.920;12.050;2024-03-02T02:26:59;97518.78;;;14.81;47.13
13124;BME280;6627;50.920;12.050;2024-03-02T02:29:28;97697.91;;;16.81;44.14
13124;BME280;6627;50.920;12.050;2024-03-02T02:31:55;97587.41;;;16.59;43.37
13124;BME280;6627;50.920;12.050;2024-03-02T02:34:23;97590.13;;;16.86;42.90
13124;BME280;6627;50.920;12.050;2024-03-02T02:36:50;97558.44;;;16.55;43.05
13124;BME280;6627;50.920;12.050;2024-03-02T02:39:21;97495.84;;;15.89;44.03
13124;BME280;6627;50.920;12.050;2024-03-02T02:41:49;97504.91;;;15.97;43.91
13124;BME280;6627;50.920;12.050;2024-03-02T02:44:25;97613.03;;;16.74;43.20
13124;BME280;6627;50.920;12.050;2024-03-02T02:46:53;97489.53;;;15.85;44.09
13124;BME280;6627;50.920;12.050;2024-03-02T02:49:21;97455.91;;;15.35;44.66
13124;BME280;6627;50.920;12.050;2024-03-02T02:51:50;97500.97;;;15.95;43.75
13124;BME280;6627;50.920;12.050;2024-03-02T02:54:19;97505.16;;;15.88;44.13
13124;BME280;6627;50.920;12.050;2024-03-02T02:56:46;97523.13;;;15.89;44.25
13124;BME280;6627;50.920;12.050;2024-03-02T02:59:13;97483.75;;;15.91;43.50
13124;BME280;6627;50.920;12.050;2024-03-02T03:01:40;97512.81;;;15.79;44.24
13124;BME280;6627;50.920;12.050;2024-03-02T03:04:10;97360.16;;;14.72;44.90
13124;BME280;6627;50.920;12.050;2024-03-02T03:06:38;97456.13;;;14.26;47.12
13124;BME280;6627;50.920;12.050;2024-03-02T03:09:06;97573.00;;;15.86;44.64
13124;BME280;6627;50.920;12.050;2024-03-02T03:11:36;97521.03;;;16.06;43.51
13124;BME280;6627;50.920;12.050;2024-03-02T03:14:05;97465.44;;;15.45;44.18
13124;BME280;6627;50.920;12.050;2024-03-02T03:16:33;97554.50;;;15.57;45.14
13124;BME280;6627;50.920;12.050;2024-03-02T03:19:00;97548.25;;;15.56;45.27
13124;BME280;6627;50.920;12.050;2024-03-02T03:21:28;97468.91;;;15.42;44.65
13124;BME280;6627;50.920;12.050;2024-03-02T03:23:55;97557.16;;;15.96;44.44
13124;BME280;6627;50.920;12.050;2024-03-02T03:26:25;97589.84;;;16.15;44.09
13124;BME280;6627;50.920;12.050;2024-03-02T03:28:56;97493.63;;;15.53;44.34
13124;BME280;6627;50.920;12.050;2024-03-02T03:31:27;97599.81;;;16.04;44.60
13124;BME280;6627;50.920;12.050;2024-03-02T03:33:57;97590.69;;;16.19;44.11
13124;BME280;6627;50.920;12.050;2024-03-02T03:36:27;97597.28;;;16.41;43.36
13124;BME280;6627;50.920;12.050;2024-03-02T03:38:54;97546.66;;;15.98;43.91
13124;BME280;6627;50.920;12.050;2024-03-02T03:41:21;97555.94;;;16.16;43.66
13124;BME280;6627;50.920;12.050;2024-03-02T03:43:49;97708.31;;;17.25;42.65
13124;BME280;6627;50.920;12.050;2024-03-02T03:46:17;97665.84;;;17.05;42.59
13124;BME280;6627;50.920;12.050;2024-03-02T03:48:45;97490.97;;;15.79;44.02
13124;BME280;6627;50.920;12.050;2024-03-02T03:51:15;97525.19;;;15.96;43.72
13124;BME280;6627;50.920;12.050;2024-03-02T03:53:45;97686.25;;;17.41;41.93
13124;BME280;6627;50.920;12.050;2024-03-02T03:56:14;97542.56;;;16.37;43.08
13124;BME280;6627;50.920;12.050;2024-03-02T03:58:42;97562.94;;;15.91;44.46
13124;BME280;6627;50.920;12.050;2024-03-02T04:01:10;97589.84;;;16.15;44.24
13124;BME280;6627;50.920;12.050;2024-03-02T04:03:39;97548.16;;;16.18;43.70
13124;BME280;6627;50.920;12.050;2024-03-02T04:06:06;97549.78;;;16.23;43.60
13124;BME280;6627;50.920;12.050;2024-03-02T04:08:33;97562.72;;;15.80;44.91
13124;BME280;6627;50.920;12.050;2024-03-02T04:11:03;97613.34;;;16.43;43.74
13124;BME280;6627;50.920;12.050;2024-03-02T04:13:33;97626.34;;;16.26;44.51
13124;BME280;6627;50.920;12.050;2024-03-02T04:16:04;97604.66;;;16.14;44.47
13124;BME280;6627;50.920;12.050;2024-03-02T04:18:34;97632.84;;;16.18;45.09
13124;BME280;6627;50.920;12.050;2024-03-02T04:21:03;97706.53;;;16.83;44.14
13124;BME280;6627;50.920;12.050;2024-03-02T04:23:31;97696.69;;;17.05;43.45
13124;BME280;6627;50.920;12.050;2024-03-02T04:25:58;97567.41;;;15.79;45.33
13124;BME280;6627;50.920;12.050;2024-03-02T04:28:25;97670.81;;;16.50;44.69
13124;BME280;6627;50.920;12.050;2024-03-02T04:30:53;97724.56;;;16.42;45.34
13124;BME280;6627;50.920;12.050;2024-03-02T04:33:23;97559.84;;;15.50;45.78
13124;BME280;6627;50.920;12.050;2024-03-02T04:35:52;97751.47;;;17.09;43.99
13124;BME280;6627;50.920;12.050;2024-03-02T04:38:23;97674.31;;;17.00;43.28
13124;BME280;6627;50.920;12.050;2024-03-02T04:40:51;97603.66;;;15.76;45.51
13124;BME280;6627;50.920;12.050;2024-03-02T04:43:19;97716.75;;;16.40;45.50
13124;BME280;6627;50.920;12.050;2024-03-02T04:45:46;97765.72;;;16.72;45.44
13124;BME280;6627;50.920;12.050;2024-03-02T04:48:13;97617.94;;;15.93;45.56
13124;BME280;6627;50.920;12.050;2024-03-02T04:50:40;97751.41;;;16.59;45.87
13124;BME280;6627;50.920;12.050;2024-03-02T04:53:29;97705.25;;;16.54;45.29
13124;BME280;6627;50.920;12.050;2024-03-02T04:55:57;97747.06;;;17.31;43.94
13124;BME280;6627;50.920;12.050;2024-03-02T04:58:45;97705.75;;;16.83;44.68
13124;BME280;6627;50.920;12.050;2024-03-02T05:01:15;97696.81;;;16.63;45.01
13124;BME280;6627;50.920;12.050;2024-03-02T05:03:46;97700.00;;;17.18;43.46
13124;BME280;6627;50.920;12.050;2024-03-02T05:06:14;97681.81;;;17.03;43.64
13124;BME280;6627;50.920;12.050;2024-03-02T05:08:58;97756.81;;;17.55;43.00
13124;BME280;6627;50.920;12.050;2024-03-02T05:11:25;97719.72;;;17.61;42.47
13124;BME280;6627;50.920;12.050;2024-03-02T05:14:19;97633.31;;;17.00;42.82
13124;BME280;6627;50.920;12.050;2024-03-02T05:16:48;97614.78;;;16.63;43.53
13124;BME280;6627;50.920;12.050;2024-03-02T05:19:18;97653.78;;;16.83;43.22
13124;BME280;6627;50.920;12.050;2024-03-02T05:21:48;97598.06;;;16.42;43.53
13124;BME280;6627;50.920;12.050;2024-03-02T05:24:20;97633.34;;;16.50;43.67
13124;BME280;6627;50.920;12.050;2024-03-02T05:27:03;97530.31;;;15.55;44.80
13124;BME280;6627;50.920;12.050;2024-03-02T05:29:32;97600.97;;;16.03;44.54
13124;BME280;6627;50.920;12.050;2024-03-02T05:32:16;97617.84;;;16.08;44.51
13124;BME280;6627;50.920;12.050;2024-03-02T05:34:43;97611.06;;;15.99;44.75
13124;BME280;6627;50.920;12.050;2024-03-02T05:37:27;97594.16;;;15.93;44.57
13124;BME280;6627;50.920;12.050;2024-03-02T05:39:58;97613.41;;;15.77;45.23
13124;BME280;6627;50.920;12.050;2024-03-02T05:42:29;97588.56;;;15.63;45.20
13124;BME280;6627;50.920;12.050;2024-03-02T05:44:58;97676.16;;;15.97;45.39
13124;BME280;6627;50.920;12.050;2024-03-02T05:47:27;97628.06;;;15.69;45.40
13124;BME280;6627;50.920;12.050;2024-03-02T05:49:54;97722.34;;;16.48;44.56
13124;BME280;6627;50.920;12.050;2024-03-02T05:52:22;97675.06;;;16.24;44.66
13124;BME280;6627;50.920;12.050;2024-03-02T05:54:49;97704.09;;;16.32;44.67
13124;BME280;6627;50.920;12.050;2024-03-02T05:57:17;97698.28;;;16.57;44.17
13124;BME280;6627;50.920;12.050;2024-03-02T05:59:59;97722.94;;;16.60;44.63
13124;BME280;6627;50.920;12.050;2024-03-02T06:02:29;97615.22;;;15.50;45.76
13124;BME280;6627;50.920;12.050;2024-03-02T06:04:59;97795.22;;;16.63;45.68
13124;BME280;6627;50.920;12.050;2024-03-02T06:07:28;97714.91;;;15.83;46.95
13124;BME280;6627;50.920;12.050;2024-03-02T06:09:55;97722.22;;;15.98;46.39
13124;BME280;6627;50.920;12.050;2024-03-02T06:12:24;97768.22;;;15.96;46.94
13124;BME280;6627;50.920;12.050;2024-03-02T06:14:51;97773.78;;;16.23;46.54
13124;BME280;6627;50.920;12.050;2024-03-02T06:17:18;97784.94;;;16.14;46.94
13124;BME280;6627;50.920;12.050;2024-03-02T06:19:46;97681.16;;;14.98;48.26
13124;BME280;6627;50.920;12.050;2024-03-02T06:22:15;97810.97;;;16.27;46.63
13124;BME280;6627;50.920;12.050;2024-03-02T06:24:45;97797.31;;;16.50;45.80
13124;BME280;6627;50.920;12.050;2024-03-02T06:27:14;97777.91;;;16.13;46.17
13124;BME280;6627;50.920;12.050;2024-03-02T06:29:45;97763.09;;;16.14;46.42
13124;BME280;6627;50.920;12.050;2024-03-02T06:32:12;97806.38;;;15.93;47.73
13124;BME280;6627;50.920;12.050;2024-03-02T06:34:40;97911.34;;;16.88;46.44
13124;BME280;6627;50.920;12.050;2024-03-02T06:37:07;97883.63;;;17.13;45.59
13124;BME280;6627;50.920;12.050;2024-03-02T06:39:35;97892.84;;;17.51;44.55
13124;BME280;6627;50.920;12.050;2024-03-02T06:42:02;97863.78;;;17.69;44.00
13124;BME280;6627;50.920;12.050;2024-03-02T06:44:30;97850.03;;;17.65;43.84
13124;BME280;6627;50.920;12.050;2024-03-02T06:46:59;97891.72;;;17.78;44.12
13124;BME280;6627;50.920;12.050;2024-03-02T06:49:29;97865.03;;;17.22;44.81
13124;BME280;6627;50.920;12.050;2024-03-02T06:51:58;97819.97;;;17.16;44.40
13124;BME280;6627;50.920;12.050;2024-03-02T06:54:25;97804.53;;;16.81;44.80
13124;BME280;6627;50.920;12.050;2024-03-02T06:56:52;97880.94;;;16.94;45.35
13124;BME280;6627;50.920;12.050;2024-03-02T06:59:19;97949.22;;;17.78;44.69
13124;BME280;6627;50.920;12.050;2024-03-02T07:01:46;97813.19;;;16.83;45.21
13124;BME280;6627;50.920;12.050;2024-03-02T07:04:35;97930.66;;;17.68;44.72
13124;BME280;6627;50.920;12.050;2024-03-02T07:07:03;97804.91;;;16.80;45.03
13124;BME280;6627;50.920;12.050;2024-03-02T07:09:34;97909.16;;;17.70;44.30
13124;BME280;6627;50.920;12.050;2024-03-02T07:12:04;97899.47;;;17.50;44.86
13124;BME280;6627;50.920;12.050;2024-03-02T07:14:34;97854.75;;;17.15;44.92
13124;BME280;6627;50.920;12.050;2024-03-02T07:17:18;97883.91;;;17.31;45.00
13124;BME280;6627;50.920;12.050;2024-03-02T07:19:47;97925.00;;;18.07;43.67
13124;BME280;6627;50.920;12.050;2024-03-02T07:22:14;97936.19;;;17.95;44.25
13124;BME280;6627;50.920;12.050;2024-03-02T07:24:42;97936.38;;;18.09;43.88
13124;BME280;6627;50.920;12.050;2024-03-02T07:27:13;97836.38;;;16.51;46.78
13124;BME280;6627;50.920;12.050;2024-03-02T07:29:43;97874.31;;;16.95;45.99
13124;BME280;6627;50.920;12.050;2024-03-02T07:32:13;97918.72;;;17.53;45.24
13124;BME280;6627;50.920;12.050;2024-03-02T07:34:41;97983.13;;;18.76;43.38
13124;BME280;6627;50.920;12.050;2024-03-02T07:37:10;97860.66;;;17.94;43.89
13124;BME280;6627;50.920;12.050;2024-03-02T07:39:37;97966.78;;;18.57;43.72
13124;BME280;6627;50.920;12.050;2024-03-02T07:42:05;97917.38;;;18.83;42.26
13124;BME280;6627;50.920;12.050;2024-03-02T07:44:32;97951.13;;;18.87;42.67
13124;BME280;6627;50.920;12.050;2024-03-02T07:47:00;97906.34;;;18.16;43.96
13124;BME280;6627;50.920;12.050;2024-03-02T07:49:30;97940.72;;;18.70;42.98
13124;BME280;6627;50.920;12.050;2024-03-02T07:52:00;97950.44;;;18.34;43.98
13124;BME280;6627;50.920;12.050;2024-03-02T07:54:31;97903.44;;;18.05;44.18
13124;BME280;6627;50.920;12.050;2024-03-02T07:57:00;97851.47;;;17.06;45.67
13124;BME280;6627;50.920;12.050;2024-03-02T07:59:27;97916.59;;;17.70;45.20
13124;BME280;6627;50.920;12.050;2024-03-02T08:02:12;97928.91;;;17.79;45.00
13124;BME280;6627;50.920;12.050;2024-03-02T08:04:40;97908.91;;;17.29;46.02
13124;BME280;6627;50.920;12.050;2024-03-02T08:07:07;97945.97;;;17.46;46.32
13124;BME280;6627;50.920;12.050;2024-03-02T08:09:36;98029.88;;;18.57;44.69
13124;BME280;6627;50.920;12.050;2024-03-02T08:12:06;97929.84;;;18.17;44.26
13124;BME280;6627;50.920;12.050;2024-03-02T08:14:36;98022.84;;;18.89;43.96
13124;BME280;6627;50.920;12.050;2024-03-02T08:17:06;97963.88;;;18.43;44.23
13124;BME280;6627;50.920;12.050;2024-03-02T08:19:36;97906.38;;;17.89;44.70
13124;BME280;6627;50.920;12.050;2024-03-02T08:22:03;97996.44;;;18.48;44.59
13124;BME280;6627;50.920;12.050;2024-03-02T08:24:31;98047.47;;;18.82;44.22
13124;BME280;6627;50.920;12.050;2024-03-02T08:27:00;98030.47;;;19.03;43.74
13124;BME280;6627;50.920;12.050;2024-03-02T08:29:27;98060.38;;;19.12;43.98
13124;BME280;6627;50.920;12.050;2024-03-02T08:32:04;98029.31;;;19.41;42.57
13124;BME280;6627;50.920;12.050;2024-03-02T08:34:34;97987.03;;;19.09;42.93
13124;BME280;6627;50.920;12.050;2024-03-02T08:37:03;98040.72;;;19.81;41.85
13124;BME280;6627;50.920;12.050;2024-03-02T08:39:34;98124.31;;;20.65;41.14
13124;BME280;6627;50.920;12.050;2024-03-02T08:42:05;98069.41;;;20.31;41.30
13124;BME280;6627;50.920;12.050;2024-03-02T08:44:33;98011.53;;;19.62;42.39
13124;BME280;6627;50.920;12.050;2024-03-02T08:47:00;98015.59;;;19.82;41.75
13124;BME280;6627;50.920;12.050;2024-03-02T08:49:27;98012.34;;;19.70;42.07
13124;BME280;6627;50.920;12.050;2024-03-02T08:51:54;98008.53;;;19.81;42.05
13124;BME280;6627;50.920;12.050;2024-03-02T08:54:24;98103.47;;;20.64;41.21
13124;BME280;6627;50.920;12.050;2024-03-02T08:56:54;98059.94;;;20.25;41.68
13124;BME280;6627;50.920;12.050;2024-03-02T08:59:26;97965.91;;;19.54;41.63
13124;BME280;6627;50.920;12.050;2024-03-02T09:01:57;97897.66;;;18.74;42.83
13124;BME280;6627;50.920;12.050;2024-03-02T09:04:25;98034.78;;;19.75;42.62
13124;BME280;6627;50.920;12.050;2024-03-02T09:06:52;97939.94;;;18.39;44.65
13124;BME280;6627;50.920;12.050;2024-03-02T09:09:20;97987.41;;;19.45;42.80
13124;BME280;6627;50.920;12.050;2024-03-02T09:11:47;98084.75;;;20.32;42.05
13124;BME280;6627;50.920;12.050;2024-03-02T09:14:15;97934.00;;;18.67;44.07
13124;BME280;6627;50.920;12.050;2024-03-02T09:16:45;98025.38;;;19.02;44.32
13124;BME280;6627;50.920;12.050;2024-03-02T09:19:15;97980.81;;;18.78;43.97
13124;BME280;6627;50.920;12.050;2024-03-02T09:21:42;98124.03;;;20.33;42.60
13124;BME280;6627;50.920;12.050;2024-03-02T09:24:14;98049.03;;;19.51;43.19
13124;BME280;6627;50.920;12.050;2024-03-02T09:26:41;98028.09;;;19.02;44.29
13124;BME280;6627;50.920;12.050;2024-03-02T09:29:08;98052.53;;;19.10;44.41
13124;BME280;6627;50.920;12.050;2024-03-02T09:31:39;98083.25;;;19.94;42.93
13124;BME280;6627;50.920;12.050;2024-03-02T09:34:08;98077.22;;;19.81;42.96
13124;BME280;6627;50.920;12.050;2024-03-02T09:36:36;98136.47;;;20.64;42.04
13124;BME280;6627;50.920;12.050;2024-03-02T09:39:07;97995.75;;;19.59;42.56
13124;BME280;6627;50.920;12.050;2024-03-02T09:41:39;98086.97;;;20.16;42.39
13124;BME280;6627;50.920;12.050;2024-03-02T09:44:10;98025.31;;;20.17;41.31
13124;BME280;6627;50.920;12.050;2024-03-02T09:46:37;98141.44;;;21.03;41.31
13124;BME280;6627;50.920;12.050;2024-03-02T09:49:04;97972.00;;;19.36;42.78
13124;BME280;6627;50.920;12.050;2024-03-02T09:51:33;98074.56;;;19.88;42.82
13124;BME280;6627;50.920;12.050;2024-03-02T09:54:02;98058.00;;;20.29;42.07
13124;BME280;6627;50.920;12.050;2024-03-02T09:56:30;98083.69;;;20.48;41.67
13124;BME280;6627;50.920;12.050;2024-03-02T09:59:17;98057.44;;;20.06;42.18
13124;BME280;6627;50.920;12.050;2024-03-02T10:01:59;98087.97;;;20.41;41.72
13124;BME280;6627;50.920;12.050;2024-03-02T10:04:30;98085.53;;;19.85;42.79
13124;BME280;6627;50.920;12.050;2024-03-02T10:07:12;98058.00;;;19.81;42.96
13124;BME280;6627;50.920;12.050;2024-03-02T10:09:41;98005.16;;;19.58;42.91
13124;BME280;6627;50.920;12.050;2024-03-02T10:12:11;97993.22;;;19.39;42.86
13124;BME280;6627;50.920;12.050;2024-03-02T10:14:39;98127.44;;;20.63;41.94
13124;BME280;6627;50.920;12.050;2024-03-02T10:17:08;98106.25;;;20.68;41.57
13124;BME280;6627;50.920;12.050;2024-03-02T10:19:36;98002.50;;;20.13;41.52
13124;BME280;6627;50.920;12.050;2024-03-02T10:22:09;97998.56;;;20.14;41.48
13124;BME280;6627;50.920;12.050;2024-03-02T10:24:40;98116.31;;;21.08;41.07
13124;BME280;6627;50.920;12.050;2024-03-02T10:27:17;97974.19;;;20.09;41.30
13124;BME280;6627;50.920;12.050;2024-03-02T10:29:48;98007.28;;;20.23;41.03
13124;BME280;6627;50.920;12.050;2024-03-02T10:32:16;98071.84;;;20.44;42.28
13124;BME280;6627;50.920;12.050;2024-03-02T10:34:45;98002.94;;;20.22;41.57
13124;BME280;6627;50.920;12.050;2024-03-02T10:37:14;97950.22;;;20.06;41.31
13124;BME280;6627;50.920;12.050;2024-03-02T10:39:46;98079.00;;;21.21;40.35
13124;BME280;6627;50.920;12.050;2024-03-02T10:42:14;98037.50;;;20.78;40.81
13124;BME280;6627;50.920;12.050;2024-03-02T10:44:45;98022.50;;;20.69;40.93
13124;BME280;6627;50.920;12.050;2024-03-02T10:47:15;98039.22;;;21.15;39.99
13124;BME280;6627;50.920;12.050;2024-03-02T10:49:50;98059.66;;;21.14;40.37
13124;BME280;6627;50.920;12.050;2024-03-02T10:52:21;98054.53;;;21.05;40.16
13124;BME280;6627;50.920;12.050;2024-03-02T10:54:50;97905.09;;;20.10;40.78
13124;BME280;6627;50.920;12.050;2024-03-02T10:57:21;98058.91;;;21.17;40.36
13124;BME280;6627;50.920;12.050;2024-03-02T10:59:52;98010.13;;;21.28;40.07
13124;BME280;6627;50.920;12.050;2024-03-02T11:02:25;98001.06;;;21.24;39.81
13124;BME280;6627;50.920;12.050;2024-03-02T11:05:11;98158.00;;;23.01;38.15
13124;BME280;6627;50.920;12.050;2024-03-02T11:07:42;98163.25;;;23.86;36.63
13124;BME280;6627;50.920;12.050;2024-03-02T11:10:14;97946.03;;;21.96;38.24
13124;BME280;6627;50.920;12.050;2024-03-02T11:12:56;97991.22;;;22.73;37.63
13124;BME280;6627;50.920;12.050;2024-03-02T11:15:28;98067.47;;;23.40;37.44
13124;BME280;6627;50.920;12.050;2024-03-02T11:17:57;97958.44;;;22.82;37.01
13124;BME280;6627;50.920;12.050;2024-03-02T11:20:25;97930.56;;;22.48;37.74
13124;BME280;6627;50.920;12.050;2024-03-02T11:22:54;98038.84;;;23.79;36.71
13124;BME280;6627;50.920;12.050;2024-03-02T11:25:27;97979.56;;;23.80;35.55
13124;BME280;6627;50.920;12.050;2024-03-02T11:28:05;97869.00;;;22.62;37.35
13124;BME280;6627;50.920;12.050;2024-03-02T11:30:52;97852.91;;;22.50;37.27
13124;BME280;6627;50.920;12.050;2024-03-02T11:33:26;97914.59;;;22.99;36.96
13124;BME280;6627;50.920;12.050;2024-03-02T11:36:00;97902.44;;;23.45;36.26
13124;BME280;6627;50.920;12.050;2024-03-02T11:38:32;97909.25;;;23.29;36.46
13124;BME280;6627;50.920;12.050;2024-03-02T11:41:05;97762.72;;;22.36;36.62
13124;BME280;6627;50.920;12.050;2024-03-02T11:43:38;97772.88;;;22.50;36.57
13124;BME280;6627;50.920;12.050;2024-03-02T11:46:06;97924.19;;;23.39;36.63
13124;BME280;6627;50.920;12.050;2024-03-02T11:48:39;97928.34;;;23.65;36.19
13124;BME280;6627;50.920;12.050;2024-03-02T11:51:08;97817.09;;;23.05;35.94
13124;BME280;6627;50.920;12.050;2024-03-02T11:53:39;97927.56;;;23.64;36.39
13124;BME280;6627;50.920;12.050;2024-03-02T11:56:10;97949.56;;;24.20;35.63
13124;BME280;6627;50.920;12.050;2024-03-02T11:58:41;97834.75;;;23.15;36.43
13124;BME280;6627;50.920;12.050;2024-03-02T12:01:10;97874.56;;;23.73;35.17
13124;BME280;6627;50.920;12.050;2024-03-02T12:03:38;97918.03;;;24.10;35.09
13124;BME280;6627;50.920;12.050;2024-03-02T12:06:06;97822.34;;;23.82;34.98
13124;BME280;6627;50.920;12.050;2024-03-02T12:08:34;97775.75;;;23.39;35.26
13124;BME280;6627;50.920;12.050;2024-03-02T12:11:04;97826.28;;;23.36;36.40
13124;BME280;6627;50.920;12.050;2024-03-02T12:13:34;97897.81;;;23.79;36.33
13124;BME280;6627;50.920;12.050;2024-03-02T12:16:04;97898.13;;;24.26;35.56
13124;BME280;6627;50.920;12.050;2024-03-02T12:18:34;97836.53;;;23.84;35.26
13124;BME280;6627;50.920;12.050;2024-03-02T12:21:02;97697.25;;;22.40;36.88
13124;BME280;6627;50.920;12.050;2024-03-02T12:23:36;97729.06;;;22.59;36.72
13124;BME280;6627;50.920;12.050;2024-03-02T12:26:04;97746.28;;;22.77;36.53
13124;BME280;6627;50.920;12.050;2024-03-02T12:28:33;97762.22;;;23.11;35.71
13124;BME280;6627;50.920;12.050;2024-03-02T12:31:01;97855.44;;;23.89;35.23
13124;BME280;6627;50.920;12.050;2024-03-02T12:33:31;97809.94;;;23.56;35.14
13124;BME280;6627;50.920;12.050;2024-03-02T12:36:02;97864.00;;;24.36;34.52
13124;BME280;6627;50.920;12.050;2024-03-02T12:38:30;97770.22;;;23.77;34.65
13124;BME280;6627;50.920;12.050;2024-03-02T12:41:01;97804.81;;;23.92;34.68
13124;BME280;6627;50.920;12.050;2024-03-02T12:43:30;97750.22;;;23.66;34.82
13124;BME280;6627;50.920;12.050;2024-03-02T12:45:59;97680.16;;;23.08;34.90
13124;BME280;6627;50.920;12.050;2024-03-02T12:48:27;97633.97;;;22.67;35.74
13124;BME280;6627;50.920;12.050;2024-03-02T12:50:54;97812.34;;;24.26;34.59
13124;BME280;6627;50.920;12.050;2024-03-02T12:53:22;97660.44;;;23.06;34.89
13124;BME280;6627;50.920;12.050;2024-03-02T12:55:53;97838.50;;;24.22;34.74
13124;BME280;6627;50.920;12.050;2024-03-02T12:58:24;97817.72;;;24.40;34.11
13124;BME280;6627;50.920;12.050;2024-03-02T13:01:07;97874.16;;;25.31;33.25
13124;BME280;6627;50.920;12.050;2024-03-02T13:03:37;97729.22;;;24.03;34.23
13124;BME280;6627;50.920;12.050;2024-03-02T13:06:06;97756.88;;;24.33;33.83
13124;BME280;6627;50.920;12.050;2024-03-02T13:08:34;97750.41;;;24.98;32.10
13124;BME280;6627;50.920;12.050;2024-03-02T13:11:02;97655.00;;;24.25;32.85
13124;BME280;6627;50.920;12.050;2024-03-02T13:13:30;97648.66;;;24.28;32.99
13124;BME280;6627;50.920;12.050;2024-03-02T13:16:02;97417.69;;;22.16;34.87